Charter Quote
Worldwide +1-877-727-2538 Call
Select Language Lang
SAFETY RELIABILITY EXPERIENCE

Private Jet Charter Services - Lincang Airport (ZPLC)

Paramount Business Jets offers private jet charter flights and luxury airliner charters to and from Lincang Airport.

AIRPORT INFORMATION
ICAOZPLC
LOCATIONLincang, China
FACILITY TYPEAIRPORT

At Paramount Business Jets you can hire chartered private jets to and from Lincang Airport with as little as 4 hours of notice. All flights booked via Paramount Business Jets are operated by certified direct air carriers that meet and exceed the FAA part 135 and 121 protocol or a foreign equivalent safety authority. Furthermore, Paramount Business Jets subscribes to ARGUS for their third party safety checks of operators, aircraft, and crews prior each and every flight to and from Lincang Airport and worldwide.

  • Quote a trip using Lincang Airport or call us 24/7 - 365 days a year at +1-877-727-2538.
Questions? Call +1-877-727-2538

METAR Weather Data at Lincang Airport, ZPLC

STATIONZPLC
OBSERVEDSat Dec 15, 21:30 UTC
NOWMon Oct 21, 19:52 UTC
AGE103870:22 hr ago
WINDcalm
VISIBILITYgreater than 7 miles
CLOUDSclear skies
TEMP41°F (5°C)
DEWPT36°F (2°C)
HUMIDITY81%
BAROMETER1022 hPa (30.18 in Hg)
METARZPLC 152130Z 00000MPS CAVOK 05/02 Q1022 NOSIG

Call us on +1-877-727-2538 (24 Hours) to Hire a Private Jet or Get a Quick Quote.

Find Airports Near any Location

Processing
...